Time;durP1;ratioP1;P1;durP2;ratioP2;P2;SDS_P1;SDS_P2;PMS_P1;PMS_P2;Temp;Humidity;BMP_temperature;BMP_pressure;BME280_temperature;BME280_humidity;BME280_pressure;Samples;Min_cycle;Max_cycle;Signal;HPM_P1;HPM_P2
2022/06/15 00:01:37;;;;;;;27.97;5.17;;;;;;;;;;4938621;29;20198;-82
2022/06/15 00:04:05;;;;;;;4.63;3.43;;;;;;;;;;4954443;28;20211;-82
2022/06/15 00:06:38;;;;;;;8.20;6.77;;;;;;;;;;4939333;29;20206;-83
2022/06/15 00:09:07;;;;;;;4.53;2.13;;;;;;;;;;4954003;29;20220;-83
2022/06/15 00:11:36;;;;;;;5.70;5.07;;;;;;;;;;4935653;29;20199;-83
2022/06/15 00:14:06;;;;;;;15.07;7.77;;;;;;;;;;4932797;29;20223;-83
2022/06/15 00:16:34;;;;;;;9.13;7.17;;;;;;;;;;4941697;29;20220;-83
2022/06/15 00:19:04;;;;;;;9.10;6.80;;;;;;;;;;4963335;28;20202;-83
2022/06/15 00:21:33;;;;;;;4.20;3.83;;;;;;;;;;4941318;29;20215;-83
2022/06/15 00:24:03;;;;;;;4.10;3.63;;;;;;;;;;4933053;29;20217;-83
2022/06/15 00:26:31;;;;;;;3.00;2.77;;;;;;;;;;4939374;29;20245;-83
2022/06/15 00:28:59;;;;;;;3.47;3.27;;;;;;;;;;4922392;29;20201;-82
2022/06/15 00:31:28;;;;;;;2.53;2.27;;;;;;;;;;4948894;29;20201;-82
2022/06/15 00:33:56;;;;;;;1.07;0.93;;;;;;;;;;4927887;29;20213;-82
2022/06/15 00:36:25;;;;;;;3.30;3.20;;;;;;;;;;4932811;29;20224;-82
2022/06/15 00:38:54;;;;;;;0.53;0.53;;;;;;;;;;4968738;28;20208;-82
2022/06/15 00:41:25;;;;;;;0.40;0.40;;;;;;;;;;4957141;29;20255;-82
2022/06/15 00:43:55;;;;;;;2.83;2.20;;;;;;;;;;4944202;29;20236;-82
2022/06/15 00:46:25;;;;;;;6.23;2.10;;;;;;;;;;4953564;28;20214;-82
2022/06/15 00:48:55;;;;;;;1.17;1.13;;;;;;;;;;4953584;29;20198;-82
2022/06/15 00:51:25;;;;;;;3.57;2.43;;;;;;;;;;4953598;28;20206;-83
2022/06/15 00:53:54;;;;;;;2.10;2.00;;;;;;;;;;4953606;28;20205;-83
2022/06/15 00:56:23;;;;;;;2.77;2.53;;;;;;;;;;4921363;29;20232;-83
2022/06/15 00:58:54;;;;;;;0.50;0.50;;;;;;;;;;4933052;29;20241;-82
2022/06/15 01:01:23;;;;;;;0.70;0.70;;;;;;;;;;4940714;29;20215;-82
2022/06/15 01:03:52;;;;;;;0.97;0.97;;;;;;;;;;4947249;29;20233;-82
2022/06/15 01:06:26;;;;;;;2.73;2.53;;;;;;;;;;4921171;29;20202;-82
2022/06/15 01:08:57;;;;;;;1.50;1.30;;;;;;;;;;4963581;28;20201;-82
2022/06/15 01:11:36;;;;;;;2.97;2.77;;;;;;;;;;4927051;29;20211;-82
2022/06/15 01:14:17;;;;;;;5.33;1.80;;;;;;;;;;4946104;29;20212;-82
2022/06/15 01:16:48;;;;;;;5.60;4.40;;;;;;;;;;4942919;29;20220;-82
2022/06/15 01:19:30;;;;;;;4.60;2.20;;;;;;;;;;4929277;29;20198;-82
2022/06/15 01:22:08;;;;;;;4.03;3.17;;;;;;;;;;4953264;28;20263;-82
2022/06/15 01:25:01;;;;;;;2.27;1.80;;;;;;;;;;4956994;28;20216;-82
2022/06/15 01:27:45;;;;;;;3.27;2.57;;;;;;;;;;4908499;29;20208;-82
2022/06/15 01:30:18;;;;;;;2.33;1.43;;;;;;;;;;4954012;29;20255;-83
2022/06/15 01:32:49;;;;;;;0.50;0.50;;;;;;;;;;4915039;29;20215;-82
2022/06/15 01:35:23;;;;;;;2.37;2.10;;;;;;;;;;4940273;29;20200;-82
2022/06/15 01:37:58;;;;;;;0.40;0.40;;;;;;;;;;4931141;29;20219;-82
2022/06/15 01:40:29;;;;;;;2.47;2.37;;;;;;;;;;4939940;29;20264;-83
2022/06/15 01:43:01;;;;;;;0.57;0.53;;;;;;;;;;4931504;28;20204;-82
2022/06/15 01:45:32;;;;;;;2.83;2.33;;;;;;;;;;4927097;29;20233;-82
2022/06/15 01:48:03;;;;;;;1.27;1.27;;;;;;;;;;4929609;29;20201;-82
2022/06/15 01:50:33;;;;;;;1.67;1.57;;;;;;;;;;4957057;29;20212;-82
2022/06/15 01:53:03;;;;;;;0.40;0.40;;;;;;;;;;4939457;29;20215;-83
2022/06/15 01:55:34;;;;;;;1.10;1.10;;;;;;;;;;4956806;29;20236;-82
2022/06/15 01:58:05;;;;;;;0.40;0.40;;;;;;;;;;4925437;28;20244;-82
2022/06/15 02:00:35;;;;;;;1.50;1.40;;;;;;;;;;4944414;29;20199;-82
2022/06/15 02:03:08;;;;;;;3.03;1.83;;;;;;;;;;4924648;29;20197;-82
2022/06/15 02:05:42;;;;;;;1.27;1.27;;;;;;;;;;4939458;29;20210;-82
2022/06/15 02:08:15;;;;;;;0.50;0.50;;;;;;;;;;4926183;29;20213;-82
2022/06/15 02:10:50;;;;;;;0.60;0.60;;;;;;;;;;4945577;29;20218;-82
2022/06/15 02:13:22;;;;;;;0.63;0.50;;;;;;;;;;4954882;29;20311;-82
2022/06/15 02:15:56;;;;;;;0.40;0.40;;;;;;;;;;4928167;29;20205;-82
2022/06/15 02:18:25;;;;;;;1.30;1.30;;;;;;;;;;4937160;29;20225;-82
2022/06/15 02:20:57;;;;;;;0.43;0.43;;;;;;;;;;4952305;29;20209;-82
2022/06/15 02:23:26;;;;;;;1.27;1.27;;;;;;;;;;4969018;28;20194;-82
2022/06/15 02:25:56;;;;;;;1.93;1.60;;;;;;;;;;4913323;29;20209;-82
2022/06/15 02:28:27;;;;;;;2.10;2.00;;;;;;;;;;4938898;29;20251;-82
2022/06/15 02:30:57;;;;;;;3.13;2.93;;;;;;;;;;4955207;29;20212;-82
2022/06/15 02:33:27;;;;;;;4.53;3.73;;;;;;;;;;4938711;29;20217;-82
2022/06/15 02:35:56;;;;;;;2.77;2.57;;;;;;;;;;4950238;29;20200;-83
2022/06/15 02:38:25;;;;;;;3.43;3.23;;;;;;;;;;4951782;29;20229;-81
2022/06/15 02:40:53;;;;;;;4.43;4.00;;;;;;;;;;4933352;29;20202;-82
2022/06/15 02:43:24;;;;;;;1.13;1.00;;;;;;;;;;4919698;29;20252;-82
2022/06/15 02:45:52;;;;;;;4.47;3.67;;;;;;;;;;4922045;29;20240;-82
2022/06/15 02:48:23;;;;;;;2.47;2.30;;;;;;;;;;4928794;29;20247;-82
2022/06/15 02:50:54;;;;;;;0.70;0.70;;;;;;;;;;4944804;29;20213;-82
2022/06/15 02:53:24;;;;;;;1.30;1.30;;;;;;;;;;4934710;29;20207;-82
2022/06/15 02:55:53;;;;;;;1.73;1.37;;;;;;;;;;4936700;29;20449;-82
2022/06/15 02:58:34;;;;;;;0.40;0.40;;;;;;;;;;4949049;28;20225;-84
2022/06/15 03:01:06;;;;;;;0.97;0.97;;;;;;;;;;4919627;29;20209;-82
2022/06/15 03:03:39;;;;;;;0.30;0.30;;;;;;;;;;4919453;29;20216;-83
2022/06/15 03:06:09;;;;;;;1.17;1.17;;;;;;;;;;4961251;28;20204;-83
2022/06/15 03:08:38;;;;;;;0.83;0.70;;;;;;;;;;4923917;29;20207;-82
2022/06/15 03:11:06;;;;;;;2.63;1.70;;;;;;;;;;4938316;29;20209;-82
2022/06/15 03:13:35;;;;;;;1.40;1.30;;;;;;;;;;4922284;29;20215;-82
2022/06/15 03:16:04;;;;;;;3.03;2.73;;;;;;;;;;4919197;29;20208;-82
2022/06/15 03:18:33;;;;;;;1.47;1.37;;;;;;;;;;4919073;29;20232;-82
2022/06/15 03:21:04;;;;;;;0.93;0.93;;;;;;;;;;4926624;29;20205;-83
2022/06/15 03:23:32;;;;;;;0.93;0.93;;;;;;;;;;4924919;29;20260;-82
2022/06/15 03:26:01;;;;;;;1.87;1.77;;;;;;;;;;4906504;29;20204;-82
2022/06/15 03:28:30;;;;;;;0.83;0.83;;;;;;;;;;4919277;29;20205;-82
2022/06/15 03:30:59;;;;;;;0.83;0.83;;;;;;;;;;4934860;29;20209;-82
2022/06/15 03:33:27;;;;;;;5.17;3.23;;;;;;;;;;4930007;29;20286;-82
2022/06/15 03:35:57;;;;;;;0.70;0.70;;;;;;;;;;4941952;29;20236;-82
2022/06/15 03:38:28;;;;;;;0.40;0.40;;;;;;;;;;4928089;29;20223;-82
2022/06/15 03:40:56;;;;;;;0.50;0.50;;;;;;;;;;4954114;29;20199;-82
2022/06/15 03:43:25;;;;;;;0.60;0.60;;;;;;;;;;4938334;29;20236;-82
2022/06/15 03:45:55;;;;;;;0.40;0.40;;;;;;;;;;4922716;29;20219;-82
2022/06/15 03:48:24;;;;;;;0.40;0.40;;;;;;;;;;4935999;29;20216;-82
2022/06/15 03:50:52;;;;;;;0.50;0.50;;;;;;;;;;4950703;28;20213;-82
2022/06/15 03:53:21;;;;;;;0.57;0.57;;;;;;;;;;4950717;28;20205;-82
2022/06/15 03:55:51;;;;;;;0.40;0.40;;;;;;;;;;4964195;28;20211;-82
2022/06/15 03:58:20;;;;;;;0.87;0.87;;;;;;;;;;4940714;28;20245;-82
2022/06/15 04:00:49;;;;;;;0.40;0.40;;;;;;;;;;4937985;29;20292;-82
2022/06/15 04:03:20;;;;;;;1.00;1.00;;;;;;;;;;4941759;28;20208;-82
2022/06/15 04:05:52;;;;;;;0.83;0.83;;;;;;;;;;4978750;28;20209;-83
2022/06/15 04:08:42;;;;;;;0.40;0.40;;;;;;;;;;4969933;28;20255;-82
2022/06/15 04:11:58;;;;;;;0.80;0.80;;;;;;;;;;4969808;28;20280;-82
2022/06/15 04:14:03;;;;;;;2.03;1.23;;;;;;;;;;4963164;28;20204;-82
2022/06/15 04:16:31;;;;;;;0.40;0.40;;;;;;;;;;4975711;28;20260;-82
2022/06/15 04:19:02;;;;;;;0.40;0.40;;;;;;;;;;4966515;28;20236;-82
2022/06/15 04:21:30;;;;;;;1.17;1.17;;;;;;;;;;4970659;28;20212;-83
2022/06/15 04:23:59;;;;;;;0.50;0.50;;;;;;;;;;4947734;28;20200;-82
2022/06/15 04:26:28;;;;;;;0.90;0.90;;;;;;;;;;4992925;28;20251;-83
2022/06/15 04:28:57;;;;;;;0.77;0.77;;;;;;;;;;4958748;28;20209;-82
2022/06/15 04:31:26;;;;;;;2.20;1.33;;;;;;;;;;4973219;28;20201;-83
2022/06/15 04:33:54;;;;;;;0.93;0.90;;;;;;;;;;4958676;28;20287;-82
2022/06/15 04:36:28;;;;;;;0.73;0.73;;;;;;;;;;4982198;28;20206;-83
2022/06/15 04:38:57;;;;;;;0.57;0.57;;;;;;;;;;4971396;28;20209;-82
2022/06/15 04:41:25;;;;;;;0.73;0.73;;;;;;;;;;4972941;28;20201;-82
2022/06/15 04:43:55;;;;;;;0.40;0.40;;;;;;;;;;4973037;28;20232;-82
2022/06/15 04:46:24;;;;;;;0.47;0.47;;;;;;;;;;4940613;29;20209;-82
2022/06/15 04:48:52;;;;;;;0.40;0.40;;;;;;;;;;4940929;28;20212;-83
2022/06/15 04:51:23;;;;;;;0.83;0.83;;;;;;;;;;4948332;28;20212;-83
2022/06/15 04:53:52;;;;;;;1.13;1.13;;;;;;;;;;4976593;28;20220;-82
2022/06/15 04:56:21;;;;;;;2.57;2.20;;;;;;;;;;4942671;28;20267;-83
2022/06/15 04:58:50;;;;;;;0.40;0.40;;;;;;;;;;4973410;28;20253;-82
2022/06/15 05:01:20;;;;;;;0.87;0.87;;;;;;;;;;4966770;28;20285;-82
2022/06/15 05:03:49;;;;;;;0.90;0.90;;;;;;;;;;4930052;29;20277;-83
2022/06/15 05:06:31;;;;;;;0.93;0.93;;;;;;;;;;4939586;29;20216;-82
2022/06/15 05:08:59;;;;;;;0.80;0.80;;;;;;;;;;4962137;28;20280;-82
2022/06/15 05:11:28;;;;;;;1.77;1.67;;;;;;;;;;4943636;29;20209;-82
2022/06/15 05:13:56;;;;;;;1.63;1.53;;;;;;;;;;4957371;29;20194;-82
2022/06/15 05:16:26;;;;;;;0.97;0.97;;;;;;;;;;4943713;29;20214;-82
2022/06/15 05:18:55;;;;;;;0.77;0.77;;;;;;;;;;4921128;29;20270;-81
2022/06/15 05:21:23;;;;;;;1.60;1.50;;;;;;;;;;4953028;28;20210;-82
2022/06/15 05:23:52;;;;;;;3.33;2.30;;;;;;;;;;4934664;29;20238;-82
2022/06/15 05:26:24;;;;;;;0.90;0.90;;;;;;;;;;4920742;29;20210;-82
2022/06/15 05:28:53;;;;;;;1.63;1.53;;;;;;;;;;4952999;28;20199;-82
2022/06/15 05:31:22;;;;;;;8.73;8.33;;;;;;;;;;4948406;28;20203;-82
2022/06/15 05:33:54;;;;;;;1.57;1.47;;;;;;;;;;4953237;29;20207;-82
2022/06/15 05:36:24;;;;;;;1.30;1.30;;;;;;;;;;4930988;29;20213;-82
2022/06/15 05:38:52;;;;;;;2.83;2.63;;;;;;;;;;4940196;29;20214;-83
2022/06/15 05:41:21;;;;;;;2.97;2.67;;;;;;;;;;4952830;28;20212;-84
2022/06/15 05:43:56;;;;;;;3.80;3.03;;;;;;;;;;4952675;28;20239;-84
2022/06/15 05:46:26;;;;;;;1.83;1.47;;;;;;;;;;4920815;29;20207;-84
2022/06/15 05:48:56;;;;;;;1.50;1.23;;;;;;;;;;4950952;29;20198;-84
2022/06/15 05:51:25;;;;;;;2.90;2.70;;;;;;;;;;4928682;29;20216;-83
2022/06/15 05:53:53;;;;;;;10.07;2.47;;;;;;;;;;4926410;29;20196;-83
2022/06/15 05:56:22;;;;;;;4.23;2.13;;;;;;;;;;4951938;29;20224;-84
2022/06/15 05:58:50;;;;;;;3.57;2.33;;;;;;;;;;4939508;29;20251;-83
2022/06/15 06:01:20;;;;;;;1.80;1.70;;;;;;;;;;4937824;29;20208;-84
2022/06/15 06:03:49;;;;;;;3.40;3.10;;;;;;;;;;4920584;29;20199;-83
2022/06/15 06:06:19;;;;;;;2.53;1.80;;;;;;;;;;4965868;28;20206;-84
2022/06/15 06:08:48;;;;;;;4.47;2.97;;;;;;;;;;4920496;29;20234;-84
2022/06/15 06:11:17;;;;;;;1.97;1.87;;;;;;;;;;4936990;29;20203;-84
2022/06/15 06:13:45;;;;;;;52.87;4.53;;;;;;;;;;4920549;29;20212;-84
2022/06/15 06:16:20;;;;;;;2.93;2.03;;;;;;;;;;4950376;29;20298;-84
2022/06/15 06:18:50;;;;;;;7.73;3.57;;;;;;;;;;4950573;29;20204;-84
2022/06/15 06:21:21;;;;;;;4.97;2.20;;;;;;;;;;4916184;29;20203;-82
2022/06/15 06:23:51;;;;;;;2.40;1.73;;;;;;;;;;4944574;28;20195;-83
2022/06/15 06:26:24;;;;;;;2.73;2.53;;;;;;;;;;4932160;29;20302;-84
2022/06/15 06:28:53;;;;;;;1.17;1.17;;;;;;;;;;4913098;29;20266;-83
2022/06/15 06:31:22;;;;;;;3.93;2.00;;;;;;;;;;4916307;29;20293;-83
2022/06/15 06:33:51;;;;;;;2.47;1.70;;;;;;;;;;4926096;29;20204;-83
2022/06/15 06:36:29;;;;;;;1.27;1.17;;;;;;;;;;4933065;29;20215;-81
2022/06/15 06:38:58;;;;;;;1.27;1.20;;;;;;;;;;4930868;29;20215;-81
2022/06/15 06:41:27;;;;;;;3.37;2.23;;;;;;;;;;4918094;29;20223;-81
2022/06/15 06:44:03;;;;;;;1.50;1.40;;;;;;;;;;4942947;28;20323;-81
2022/06/15 06:46:32;;;;;;;4.00;2.40;;;;;;;;;;4936284;29;20210;-81
2022/06/15 06:49:01;;;;;;;1.60;1.43;;;;;;;;;;4945600;28;20249;-81
2022/06/15 06:51:34;;;;;;;3.90;3.40;;;;;;;;;;4918425;29;20205;-81
2022/06/15 06:54:02;;;;;;;4.03;2.60;;;;;;;;;;4948731;28;20210;-81
2022/06/15 06:56:31;;;;;;;2.43;1.73;;;;;;;;;;4913954;29;20208;-81
2022/06/15 06:58:59;;;;;;;1.30;1.20;;;;;;;;;;4915574;29;20244;-81
2022/06/15 07:01:27;;;;;;;1.93;1.30;;;;;;;;;;4926709;29;20209;-81
2022/06/15 07:03:56;;;;;;;8.43;3.47;;;;;;;;;;4916732;29;20207;-81
2022/06/15 07:06:25;;;;;;;1.30;1.20;;;;;;;;;;4917061;29;20218;-81
2022/06/15 07:08:54;;;;;;;1.50;1.40;;;;;;;;;;4948225;28;20217;-81
2022/06/15 07:11:23;;;;;;;2.77;1.60;;;;;;;;;;4920147;29;20220;-81
2022/06/15 07:13:51;;;;;;;5.67;2.40;;;;;;;;;;4946394;28;20217;-82
2022/06/15 07:16:20;;;;;;;3.53;3.23;;;;;;;;;;4930306;29;20214;-84
2022/06/15 07:18:50;;;;;;;1.23;1.13;;;;;;;;;;4937270;29;20204;-82
2022/06/15 07:21:20;;;;;;;2.97;2.77;;;;;;;;;;4918654;29;20235;-82
2022/06/15 07:23:49;;;;;;;1.33;1.23;;;;;;;;;;4932457;29;20201;-82
2022/06/15 07:26:21;;;;;;;3.93;1.97;;;;;;;;;;4912595;29;20203;-79
2022/06/15 07:28:49;;;;;;;2.30;1.60;;;;;;;;;;4918521;29;20211;-82
2022/06/15 07:31:23;;;;;;;1.63;1.53;;;;;;;;;;4930950;29;20203;-81
2022/06/15 07:33:52;;;;;;;3.80;1.20;;;;;;;;;;4916515;29;20214;-82
2022/06/15 07:36:23;;;;;;;1.53;1.43;;;;;;;;;;4918502;29;20213;-82
2022/06/15 07:38:52;;;;;;;1.37;1.20;;;;;;;;;;4954865;28;20259;-82
2022/06/15 07:41:22;;;;;;;3.40;2.33;;;;;;;;;;4918969;29;20223;-82
2022/06/15 07:43:50;;;;;;;2.67;2.33;;;;;;;;;;4943088;29;20232;-81
2022/06/15 07:46:19;;;;;;;1.97;1.80;;;;;;;;;;4922529;29;20245;-81
2022/06/15 07:51:41;;;;;;;3.33;2.00;;;;;;;;;;4921321;29;20216;-82
2022/06/15 07:54:10;;;;;;;0.77;0.77;;;;;;;;;;4932736;29;20210;-82
2022/06/15 07:56:41;;;;;;;4.43;2.53;;;;;;;;;;4949885;28;20202;-82
2022/06/15 07:59:09;;;;;;;4.20;2.10;;;;;;;;;;4943742;29;20317;-82
2022/06/15 08:01:38;;;;;;;2.53;1.60;;;;;;;;;;4932610;29;20228;-82
2022/06/15 08:04:06;;;;;;;3.13;2.70;;;;;;;;;;4932959;29;20231;-82
2022/06/15 08:06:37;;;;;;;7.03;1.60;;;;;;;;;;4935029;29;20284;-82
2022/06/15 08:09:09;;;;;;;3.73;1.60;;;;;;;;;;4917971;29;20207;-82
2022/06/15 08:11:38;;;;;;;1.90;1.80;;;;;;;;;;4918053;29;21855;-82
2022/06/15 08:14:08;;;;;;;2.43;1.90;;;;;;;;;;4915805;29;20292;-81
2022/06/15 08:16:36;;;;;;;2.10;1.87;;;;;;;;;;4921780;29;20214;-81
2022/06/15 08:19:05;;;;;;;4.90;1.97;;;;;;;;;;4921164;29;20220;-81
2022/06/15 08:21:35;;;;;;;5.70;2.63;;;;;;;;;;4921292;29;20232;-81
2022/06/15 08:24:04;;;;;;;2.43;1.73;;;;;;;;;;4921634;29;20211;-82
2022/06/15 08:26:36;;;;;;;1.80;1.43;;;;;;;;;;4939120;29;20214;-81
2022/06/15 08:29:06;;;;;;;4.20;2.00;;;;;;;;;;4936611;29;20267;-81
2022/06/15 08:31:36;;;;;;;1.77;1.67;;;;;;;;;;4922279;29;20209;-81
2022/06/15 08:34:05;;;;;;;1.00;1.00;;;;;;;;;;4938830;29;20215;-81
2022/06/15 08:36:34;;;;;;;3.77;3.57;;;;;;;;;;4953753;28;20284;-81
2022/06/15 08:39:02;;;;;;;2.07;1.73;;;;;;;;;;4922053;29;20274;-83
2022/06/15 08:41:38;;;;;;;1.40;1.23;;;;;;;;;;4953551;28;20224;-83
2022/06/15 08:44:10;;;;;;;4.33;2.83;;;;;;;;;;4939698;29;20224;-83
2022/06/15 08:46:47;;;;;;;2.07;1.93;;;;;;;;;;4922677;29;20240;-83
2022/06/15 08:49:33;;;;;;;1.10;1.10;;;;;;;;;;4941014;29;20244;-83
2022/06/15 08:52:04;;;;;;;3.23;2.00;;;;;;;;;;4938101;29;20290;-82
2022/06/15 08:54:36;;;;;;;4.33;2.07;;;;;;;;;;4936620;29;20209;-82
2022/06/15 08:57:08;;;;;;;0.90;0.90;;;;;;;;;;4946972;29;20206;-83
2022/06/15 08:59:42;;;;;;;1.93;1.83;;;;;;;;;;4956579;28;20247;-84
2022/06/15 09:02:15;;;;;;;3.77;2.27;;;;;;;;;;4922131;29;20238;-83
2022/06/15 09:04:51;;;;;;;3.97;1.67;;;;;;;;;;4934860;29;20208;-84
2022/06/15 09:07:28;;;;;;;4.13;1.90;;;;;;;;;;4934110;29;20216;-84
2022/06/15 09:10:03;;;;;;;4.73;1.80;;;;;;;;;;4950955;28;20208;-84
2022/06/15 09:12:58;;;;;;;2.63;1.50;;;;;;;;;;4937270;29;20215;-84
2022/06/15 09:15:32;;;;;;;2.97;2.20;;;;;;;;;;4940173;29;20209;-84
2022/06/15 09:18:07;;;;;;;3.03;1.40;;;;;;;;;;4931101;29;20203;-84
2022/06/15 09:20:38;;;;;;;2.40;1.73;;;;;;;;;;4932183;29;20247;-84
2022/06/15 09:23:09;;;;;;;2.13;1.53;;;;;;;;;;4919542;29;20256;-84
2022/06/15 09:25:45;;;;;;;5.20;2.10;;;;;;;;;;4934013;29;20229;-84
2022/06/15 09:28:18;;;;;;;5.23;1.50;;;;;;;;;;4933460;29;20231;-86
2022/06/15 09:30:52;;;;;;;1.60;1.10;;;;;;;;;;4937289;29;20215;-84
2022/06/15 09:33:25;;;;;;;3.43;1.73;;;;;;;;;;4936690;29;20224;-84
2022/06/15 09:36:02;;;;;;;0.93;0.90;;;;;;;;;;4924504;29;20340;-84
2022/06/15 09:38:31;;;;;;;1.30;1.27;;;;;;;;;;4937707;29;20212;-85
2022/06/15 09:41:05;;;;;;;0.60;0.60;;;;;;;;;;4929801;29;20208;-84
2022/06/15 09:43:40;;;;;;;1.90;1.70;;;;;;;;;;4928184;29;20234;-84
2022/06/15 09:46:11;;;;;;;4.90;2.00;;;;;;;;;;4918189;29;20249;-84
2022/06/15 09:48:47;;;;;;;2.73;2.17;;;;;;;;;;4924437;29;20218;-84
2022/06/15 09:51:21;;;;;;;5.60;2.30;;;;;;;;;;4933047;29;20300;-82
2022/06/15 09:53:53;;;;;;;2.53;1.70;;;;;;;;;;4927553;29;20201;-83
2022/06/15 09:56:22;;;;;;;4.67;1.63;;;;;;;;;;4928410;29;20213;-83
2022/06/15 09:58:55;;;;;;;1.53;1.10;;;;;;;;;;4923675;29;20242;-83
2022/06/15 10:01:25;;;;;;;1.57;1.47;;;;;;;;;;4923114;29;20324;-83
2022/06/15 10:03:58;;;;;;;2.40;2.10;;;;;;;;;;4909014;29;20212;-83
2022/06/15 10:06:30;;;;;;;1.50;1.40;;;;;;;;;;4911047;29;20235;-83
2022/06/15 10:09:00;;;;;;;1.43;1.33;;;;;;;;;;4942367;28;20210;-83
2022/06/15 10:11:34;;;;;;;1.73;1.43;;;;;;;;;;4934380;29;20205;-83
2022/06/15 10:14:17;;;;;;;1.33;1.10;;;;;;;;;;4913564;29;20217;-83
2022/06/15 10:16:52;;;;;;;2.37;2.17;;;;;;;;;;4909087;29;20228;-83
2022/06/15 10:19:23;;;;;;;1.53;1.43;;;;;;;;;;4922942;29;20254;-83
2022/06/15 10:21:53;;;;;;;2.17;1.17;;;;;;;;;;4913235;29;20222;-84
2022/06/15 10:24:23;;;;;;;1.87;0.90;;;;;;;;;;4923489;29;20211;-83
2022/06/15 10:27:12;;;;;;;2.63;1.17;;;;;;;;;;4911391;29;20206;-84
2022/06/15 10:29:40;;;;;;;2.70;1.53;;;;;;;;;;4908031;29;20210;-83
2022/06/15 10:32:20;;;;;;;2.30;0.93;;;;;;;;;;4926911;29;20284;-83
2022/06/15 10:34:57;;;;;;;4.63;3.07;;;;;;;;;;4936974;28;20205;-83
2022/06/15 10:37:29;;;;;;;0.77;0.67;;;;;;;;;;4932232;29;20232;-83
2022/06/15 10:39:59;;;;;;;2.80;1.50;;;;;;;;;;4926741;29;20242;-83
2022/06/15 10:42:33;;;;;;;1.73;1.47;;;;;;;;;;4914486;29;20299;-83
2022/06/15 10:45:02;;;;;;;5.00;1.97;;;;;;;;;;4921790;29;20346;-82
2022/06/15 10:47:38;;;;;;;6.07;1.10;;;;;;;;;;4913589;29;20280;-82
2022/06/15 10:50:26;;;;;;;0.80;0.80;;;;;;;;;;4914948;29;20213;-82
2022/06/15 10:53:26;;;;;;;2.27;1.17;;;;;;;;;;4909623;29;20219;-82
2022/06/15 11:04:30;;;;;;;1.50;1.40;;;;;;;;;;4963311;28;20292;-81
2022/06/15 11:07:05;;;;;;;2.73;1.97;;;;;;;;;;4931391;29;20209;-82
2022/06/15 11:09:35;;;;;;;3.50;2.43;;;;;;;;;;4945263;28;20217;-82
2022/06/15 11:12:17;;;;;;;3.53;2.97;;;;;;;;;;4931520;28;20201;-82
2022/06/15 11:14:50;;;;;;;1.90;1.67;;;;;;;;;;4937837;28;20216;-82
2022/06/15 11:20:09;;;;;;;5.90;2.17;;;;;;;;;;4934055;29;20209;-81
2022/06/15 11:22:42;;;;;;;1.93;1.70;;;;;;;;;;4942887;28;20220;-81
2022/06/15 11:25:14;;;;;;;4.07;1.97;;;;;;;;;;4955255;28;20216;-82
2022/06/15 11:27:48;;;;;;;0.80;0.80;;;;;;;;;;4948388;28;20240;-82
2022/06/15 11:30:39;;;;;;;2.03;1.87;;;;;;;;;;4932410;28;20214;-82
2022/06/15 11:33:18;;;;;;;3.33;1.77;;;;;;;;;;4931752;28;20622;-82
2022/06/15 11:36:01;;;;;;;2.57;1.50;;;;;;;;;;4953166;28;20217;-83
2022/06/15 11:38:46;;;;;;;2.73;2.03;;;;;;;;;;4931855;28;20205;-82
2022/06/15 11:41:34;;;;;;;1.10;1.03;;;;;;;;;;4961015;28;20231;-83
2022/06/15 11:44:10;;;;;;;4.93;1.20;;;;;;;;;;4937039;28;20232;-83
2022/06/15 11:46:54;;;;;;;1.50;1.40;;;;;;;;;;4943213;28;20205;-83
2022/06/15 11:49:44;;;;;;;1.73;1.40;;;;;;;;;;4961685;28;20204;-83
2022/06/15 11:52:32;;;;;;;2.67;1.80;;;;;;;;;;4950390;28;20205;-83
2022/06/15 11:55:16;;;;;;;3.47;2.27;;;;;;;;;;4954275;28;20205;-82
2022/06/15 11:57:50;;;;;;;1.80;1.07;;;;;;;;;;4968958;28;20213;-82
2022/06/15 12:00:22;;;;;;;1.00;0.97;;;;;;;;;;4938390;29;20265;-83
2022/06/15 12:03:11;;;;;;;1.67;1.57;;;;;;;;;;4922830;29;20250;-82
2022/06/15 12:05:44;;;;;;;3.27;2.33;;;;;;;;;;4928402;29;20226;-82
2022/06/15 12:08:20;;;;;;;1.60;1.50;;;;;;;;;;4920631;29;20237;-82
2022/06/15 12:10:51;;;;;;;0.70;0.70;;;;;;;;;;4919026;29;20226;-82
2022/06/15 12:13:27;;;;;;;3.07;1.40;;;;;;;;;;4919175;29;20214;-82
2022/06/15 12:16:03;;;;;;;4.70;1.60;;;;;;;;;;4929549;29;20232;-82
2022/06/15 12:18:49;;;;;;;2.10;1.17;;;;;;;;;;4920669;29;20216;-82
2022/06/15 12:21:22;;;;;;;2.83;2.17;;;;;;;;;;4962527;28;20202;-82
2022/06/15 12:23:56;;;;;;;1.30;1.20;;;;;;;;;;4937581;29;20214;-82
2022/06/15 12:26:31;;;;;;;2.17;1.77;;;;;;;;;;4925843;29;20206;-83
2022/06/15 12:29:02;;;;;;;0.90;0.90;;;;;;;;;;4964098;28;20236;-82
2022/06/15 12:31:40;;;;;;;5.60;1.87;;;;;;;;;;4949622;29;20244;-82
2022/06/15 12:34:11;;;;;;;0.97;0.97;;;;;;;;;;4919026;29;20196;-82
2022/06/15 12:36:44;;;;;;;0.70;0.70;;;;;;;;;;4935554;29;20209;-82
2022/06/15 12:39:21;;;;;;;1.53;1.23;;;;;;;;;;4950427;28;20213;-82
2022/06/15 12:44:39;;;;;;;4.27;1.70;;;;;;;;;;4935442;29;20366;-82
2022/06/15 12:47:11;;;;;;;5.80;2.40;;;;;;;;;;4926451;29;20219;-82
2022/06/15 12:50:18;;;;;;;0.83;0.83;;;;;;;;;;4922005;29;20228;-81
2022/06/15 12:52:51;;;;;;;2.80;2.10;;;;;;;;;;4953817;28;20273;-82
2022/06/15 12:55:24;;;;;;;3.70;1.30;;;;;;;;;;4933827;29;20305;-82
2022/06/15 12:57:57;;;;;;;3.43;1.53;;;;;;;;;;4938631;29;20282;-82
2022/06/15 13:00:27;;;;;;;1.17;1.17;;;;;;;;;;4921794;29;20223;-82
2022/06/15 13:03:00;;;;;;;2.00;1.80;;;;;;;;;;4921689;29;20332;-82
2022/06/15 13:05:31;;;;;;;1.90;1.70;;;;;;;;;;4921777;29;20293;-82
2022/06/15 13:08:17;;;;;;;0.20;0.20;;;;;;;;;;4921589;29;20567;-82
2022/06/15 13:11:00;;;;;;;3.50;1.57;;;;;;;;;;4953383;28;20212;-83
2022/06/15 13:13:32;;;;;;;1.03;0.93;;;;;;;;;;4970613;28;20232;-83
2022/06/15 13:16:07;;;;;;;2.70;2.07;;;;;;;;;;4940479;29;20246;-83
2022/06/15 13:18:42;;;;;;;3.00;1.20;;;;;;;;;;4922914;29;20205;-82
2022/06/15 13:21:11;;;;;;;1.13;0.83;;;;;;;;;;4921182;29;20255;-82
2022/06/15 13:23:41;;;;;;;1.87;1.43;;;;;;;;;;4921071;29;20273;-82
2022/06/15 13:26:11;;;;;;;1.30;1.23;;;;;;;;;;4921447;29;20224;-82
2022/06/15 13:28:43;;;;;;;2.60;2.40;;;;;;;;;;4921197;29;20225;-82
2022/06/15 13:31:13;;;;;;;3.77;1.73;;;;;;;;;;4921260;29;20209;-83
2022/06/15 13:34:05;;;;;;;2.70;2.07;;;;;;;;;;4923620;29;20208;-82
2022/06/15 13:36:34;;;;;;;2.73;2.00;;;;;;;;;;4914654;29;20302;-82
2022/06/15 13:39:04;;;;;;;4.63;1.03;;;;;;;;;;4971102;28;20273;-83
2022/06/15 13:41:33;;;;;;;1.07;1.07;;;;;;;;;;4929342;29;20289;-83
2022/06/15 13:44:23;;;;;;;1.37;1.27;;;;;;;;;;4924285;29;20238;-83
2022/06/15 13:47:02;;;;;;;1.60;1.03;;;;;;;;;;4939984;29;20206;-83
2022/06/15 13:49:36;;;;;;;3.00;1.40;;;;;;;;;;4908450;29;20241;-83
2022/06/15 13:52:08;;;;;;;1.30;1.20;;;;;;;;;;4921017;29;20280;-83
2022/06/15 13:54:49;;;;;;;6.80;2.93;;;;;;;;;;4920250;29;20225;-83
2022/06/15 13:57:21;;;;;;;1.43;1.10;;;;;;;;;;4930585;29;20394;-81
2022/06/15 13:59:55;;;;;;;1.30;1.20;;;;;;;;;;4951720;28;20237;-82
2022/06/15 14:02:34;;;;;;;2.73;1.80;;;;;;;;;;4931315;29;20239;-82
2022/06/15 14:05:16;;;;;;;0.70;0.70;;;;;;;;;;4935135;29;20221;-81
2022/06/15 14:08:01;;;;;;;5.27;1.60;;;;;;;;;;4920627;29;20221;-82
2022/06/15 14:10:36;;;;;;;3.23;1.93;;;;;;;;;;4940711;29;20213;-82
2022/06/15 14:13:12;;;;;;;1.37;1.23;;;;;;;;;;4934579;29;20225;-82
2022/06/15 14:15:59;;;;;;;2.43;1.93;;;;;;;;;;4931685;29;20200;-81
2022/06/15 14:18:46;;;;;;;1.90;0.90;;;;;;;;;;4952297;29;20305;-82
2022/06/15 14:21:18;;;;;;;1.37;1.27;;;;;;;;;;4952379;28;20206;-82
2022/06/15 14:23:47;;;;;;;2.40;1.87;;;;;;;;;;4919981;29;20226;-83
2022/06/15 14:26:18;;;;;;;1.70;1.40;;;;;;;;;;4920258;29;20304;-82
2022/06/15 14:28:51;;;;;;;2.73;2.53;;;;;;;;;;4965629;28;20205;-82
2022/06/15 14:31:25;;;;;;;0.63;0.63;;;;;;;;;;4952214;28;20213;-82
2022/06/15 14:33:55;;;;;;;2.00;1.80;;;;;;;;;;4920457;29;20197;-83
2022/06/15 14:36:26;;;;;;;4.53;2.43;;;;;;;;;;4920005;29;20211;-81
2022/06/15 14:38:56;;;;;;;1.67;1.57;;;;;;;;;;4933868;29;20261;-82
2022/06/15 14:41:26;;;;;;;5.10;1.13;;;;;;;;;;4952493;29;20217;-84
2022/06/15 14:43:55;;;;;;;10.63;1.87;;;;;;;;;;4933719;29;20304;-85
2022/06/15 14:46:25;;;;;;;2.10;1.83;;;;;;;;;;4929336;29;20209;-85
2022/06/15 14:48:56;;;;;;;3.67;1.93;;;;;;;;;;4937719;29;20237;-84
2022/06/15 14:51:26;;;;;;;2.50;2.30;;;;;;;;;;4927839;29;20204;-85
2022/06/15 14:53:59;;;;;;;5.97;2.23;;;;;;;;;;4925663;29;20200;-85
2022/06/15 14:56:29;;;;;;;3.47;2.00;;;;;;;;;;4930818;29;20207;-85
2022/06/15 14:58:59;;;;;;;5.53;2.20;;;;;;;;;;4930209;29;20293;-85
2022/06/15 15:01:31;;;;;;;3.20;1.60;;;;;;;;;;4936308;29;20212;-85
2022/06/15 15:04:13;;;;;;;6.20;2.67;;;;;;;;;;4919754;29;20223;-85
2022/06/15 15:06:51;;;;;;;3.17;1.40;;;;;;;;;;4951749;28;20200;-85
2022/06/15 15:09:20;;;;;;;4.77;1.87;;;;;;;;;;4951656;28;20206;-85
2022/06/15 15:11:49;;;;;;;1.53;1.43;;;;;;;;;;4933136;29;20208;-85
2022/06/15 15:14:21;;;;;;;1.03;0.83;;;;;;;;;;4946912;29;20285;-85
2022/06/15 15:16:56;;;;;;;4.07;2.20;;;;;;;;;;4925772;29;20206;-86
2022/06/15 15:19:30;;;;;;;4.73;2.63;;;;;;;;;;4938775;29;20209;-85
2022/06/15 15:22:06;;;;;;;1.70;1.20;;;;;;;;;;4934370;29;20273;-85
2022/06/15 15:24:36;;;;;;;2.17;1.97;;;;;;;;;;4919658;29;20221;-85
2022/06/15 15:27:09;;;;;;;2.80;2.50;;;;;;;;;;4923436;29;20202;-85
2022/06/15 15:35:47;;;;;;;1.03;0.93;;;;;;;;;;4935392;29;20194;-83
2022/06/15 15:38:35;;;;;;;2.33;0.93;;;;;;;;;;4932462;29;20229;-87